Time;durP1;ratioP1;P1;durP2;ratioP2;P2;SDS_P1;SDS_P2;PMS_P1;PMS_P2;Temp;Humidity;BMP_temperature;BMP_pressure;BME280_temperature;BME280_humidity;BME280_pressure;Samples;Min_cycle;Max_cycle;Signal;HPM_P1;HPM_P2
2023/09/03 04:02:58;;;;;;;2.77;2.07;;;20.10;82.20;;;;;;4897042;29;20475;-69
2023/09/03 04:05:25;;;;;;;2.37;1.50;;;20.10;82.10;;;;;;4898476;29;20434;-69
2023/09/03 04:07:52;;;;;;;2.50;1.70;;;20.00;82.30;;;;;;4898721;29;20450;-70
2023/09/03 04:10:19;;;;;;;2.10;1.40;;;20.00;82.50;;;;;;4898638;29;20454;-70
2023/09/03 04:12:45;;;;;;;2.40;1.80;;;20.00;82.50;;;;;;4898531;29;20473;-70
2023/09/03 04:15:12;;;;;;;2.13;1.53;;;19.90;82.80;;;;;;4898805;29;21014;-70
2023/09/03 04:17:39;;;;;;;2.63;1.73;;;19.90;82.90;;;;;;4898528;29;20449;-70
2023/09/03 04:20:08;;;;;;;2.23;1.70;;;19.90;83.00;;;;;;4898542;29;20445;-70
2023/09/03 04:22:38;;;;;;;2.77;1.63;;;19.90;83.00;;;;;;4898442;29;20905;-69
2023/09/03 04:25:05;;;;;;;2.13;1.37;;;19.90;83.10;;;;;;4898470;29;20506;-70
2023/09/03 04:27:32;;;;;;;2.70;1.77;;;19.90;83.00;;;;;;4898384;29;20453;-70
2023/09/03 04:29:59;;;;;;;2.53;1.57;;;20.00;83.10;;;;;;4898108;29;20943;-70
2023/09/03 04:32:26;;;;;;;2.23;1.47;;;20.00;82.90;;;;;;4897936;29;20898;-70
2023/09/03 04:34:52;;;;;;;2.30;1.40;;;20.00;82.70;;;;;;4898252;29;20601;-69
2023/09/03 04:37:20;;;;;;;2.30;1.30;;;20.10;82.70;;;;;;4898288;29;20505;-69
2023/09/03 04:39:47;;;;;;;2.23;1.67;;;20.00;83.00;;;;;;4898297;29;20509;-70
2023/09/03 04:42:13;;;;;;;2.00;1.37;;;19.90;83.20;;;;;;4898165;29;20469;-70
2023/09/03 04:44:42;;;;;;;2.43;1.50;;;20.00;83.00;;;;;;4898253;29;20449;-70
2023/09/03 04:47:09;;;;;;;2.77;2.00;;;19.90;83.00;;;;;;4898133;29;20461;-70
2023/09/03 04:49:35;;;;;;;2.63;1.57;;;19.90;82.90;;;;;;4898215;29;20450;-70
2023/09/03 04:52:02;;;;;;;3.80;1.60;;;19.90;83.20;;;;;;4898078;29;20502;-70
2023/09/03 04:54:31;;;;;;;2.20;1.07;;;19.90;83.00;;;;;;4898087;29;20488;-69
2023/09/03 04:56:58;;;;;;;3.30;1.40;;;19.90;82.80;;;;;;4897864;29;20931;-69
2023/09/03 04:59:24;;;;;;;2.10;1.60;;;20.00;82.80;;;;;;4900458;29;20552;-70
2023/09/03 05:01:51;;;;;;;3.30;1.53;;;20.00;82.70;;;;;;4901666;29;20481;-70
2023/09/03 05:04:18;;;;;;;2.30;1.67;;;20.00;82.60;;;;;;4901672;29;20814;-69
2023/09/03 05:06:44;;;;;;;2.47;1.60;;;20.00;82.60;;;;;;4901624;29;20944;-69
2023/09/03 05:09:11;;;;;;;2.33;1.40;;;20.10;82.60;;;;;;4901570;29;20854;-70
2023/09/03 05:11:42;;;;;;;2.20;1.60;;;20.10;82.70;;;;;;4901809;29;20518;-70
2023/09/03 05:14:08;;;;;;;2.53;1.50;;;20.10;82.70;;;;;;4901813;29;20430;-70
2023/09/03 05:16:35;;;;;;;2.70;1.47;;;20.10;82.70;;;;;;4901759;29;20449;-69
2023/09/03 05:19:04;;;;;;;4.20;2.07;;;20.20;82.60;;;;;;4901705;29;20445;-70
2023/09/03 05:21:32;;;;;;;2.20;1.30;;;20.20;82.60;;;;;;4901598;29;20473;-70
2023/09/03 05:23:58;;;;;;;2.17;1.50;;;20.20;82.60;;;;;;4901626;29;20461;-70
2023/09/03 05:26:25;;;;;;;2.10;1.43;;;20.20;82.40;;;;;;4901619;29;20444;-70
2023/09/03 05:28:53;;;;;;;2.10;1.30;;;20.20;82.50;;;;;;4901560;29;20453;-70
2023/09/03 05:31:20;;;;;;;2.20;1.47;;;20.30;82.50;;;;;;4901408;29;20465;-69
2023/09/03 05:33:46;;;;;;;4.47;2.00;;;20.40;82.30;;;;;;4901157;29;20453;-70
2023/09/03 05:36:13;;;;;;;3.00;1.73;;;20.40;82.20;;;;;;4901048;29;21037;-70
2023/09/03 05:38:42;;;;;;;2.83;1.70;;;20.40;82.10;;;;;;4901093;29;21020;-70
2023/09/03 05:41:09;;;;;;;2.17;1.30;;;20.40;82.30;;;;;;4901271;29;20508;-70
2023/09/03 05:43:36;;;;;;;2.77;1.53;;;20.40;82.40;;;;;;4901294;29;20456;-70
2023/09/03 05:46:04;;;;;;;2.20;1.40;;;20.50;81.90;;;;;;4900982;29;21007;-69
2023/09/03 05:48:31;;;;;;;2.47;1.63;;;20.40;82.00;;;;;;4901163;29;20453;-70
2023/09/03 05:50:59;;;;;;;3.40;1.53;;;20.50;81.90;;;;;;4901082;29;20484;-70
2023/09/03 05:53:25;;;;;;;2.63;1.50;;;20.60;81.50;;;;;;4901158;29;20457;-70
2023/09/03 05:55:53;;;;;;;5.00;1.60;;;20.70;81.40;;;;;;4901134;29;20556;-69
2023/09/03 05:58:19;;;;;;;2.97;1.83;;;20.70;81.50;;;;;;4901035;29;20453;-70
2023/09/03 06:00:46;;;;;;;2.47;1.60;;;20.80;81.20;;;;;;4900814;29;20477;-70
2023/09/03 06:03:14;;;;;;;2.27;1.50;;;20.90;81.00;;;;;;4900955;29;20489;-69
2023/09/03 06:05:42;;;;;;;2.23;1.60;;;21.00;80.80;;;;;;4900587;29;20489;-70
2023/09/03 06:08:08;;;;;;;2.90;1.77;;;21.10;80.80;;;;;;4900876;29;20454;-70
2023/09/03 06:10:37;;;;;;;2.43;1.63;;;21.20;81.00;;;;;;4900682;29;20521;-70
2023/09/03 06:13:04;;;;;;;2.47;1.53;;;21.10;81.00;;;;;;4900760;29;20449;-70
2023/09/03 06:15:31;;;;;;;2.63;1.60;;;21.20;81.10;;;;;;4900669;29;20489;-70
2023/09/03 06:17:59;;;;;;;2.10;1.50;;;21.30;80.90;;;;;;4900659;29;20453;-69
2023/09/03 06:20:27;;;;;;;2.80;1.80;;;21.40;80.50;;;;;;4900570;29;20457;-70
2023/09/03 06:22:54;;;;;;;2.60;1.97;;;21.60;80.60;;;;;;4900591;29;20445;-70
2023/09/03 06:25:20;;;;;;;2.00;1.37;;;21.70;80.70;;;;;;4900543;29;20446;-70
2023/09/03 06:27:47;;;;;;;2.30;1.60;;;21.90;80.60;;;;;;4900523;29;20461;-70
2023/09/03 06:30:14;;;;;;;2.20;1.57;;;21.80;80.50;;;;;;4900489;29;20441;-70
2023/09/03 06:32:40;;;;;;;2.23;1.63;;;21.90;80.80;;;;;;4900034;29;21047;-70
2023/09/03 06:35:07;;;;;;;2.20;1.43;;;22.00;80.60;;;;;;4900013;29;21003;-70
2023/09/03 06:37:35;;;;;;;3.37;1.90;;;22.30;80.30;;;;;;4900379;29;20453;-70
2023/09/03 06:40:03;;;;;;;2.07;1.57;;;22.40;79.50;;;;;;4900277;29;20449;-70
2023/09/03 06:42:38;;;;;;;3.33;1.90;;;22.30;79.60;;;;;;4900158;29;20474;-70
2023/09/03 06:45:06;;;;;;;3.33;1.63;;;22.10;80.00;;;;;;4900003;29;20437;-70
2023/09/03 06:47:33;;;;;;;2.10;1.50;;;21.90;80.70;;;;;;4900109;29;20505;-70
2023/09/03 06:49:59;;;;;;;3.03;2.07;;;21.70;81.30;;;;;;4900165;29;20449;-70
2023/09/03 06:52:26;;;;;;;3.63;2.40;;;21.70;82.10;;;;;;4900023;29;20501;-70
2023/09/03 06:54:54;;;;;;;2.90;2.10;;;21.60;82.30;;;;;;4899952;29;20485;-70
2023/09/03 06:57:21;;;;;;;3.60;1.90;;;21.50;82.70;;;;;;4899966;29;20461;-69
2023/09/03 06:59:47;;;;;;;2.70;1.73;;;21.40;83.00;;;;;;4899957;29;20453;-70
2023/09/03 07:02:14;;;;;;;3.30;1.97;;;21.20;83.70;;;;;;4899453;29;20492;-70
2023/09/03 07:04:41;;;;;;;2.10;1.50;;;21.20;83.70;;;;;;4899876;29;20884;-70
2023/09/03 07:07:08;;;;;;;4.33;2.30;;;21.20;83.50;;;;;;4899805;29;20454;-70
2023/09/03 07:09:35;;;;;;;2.30;1.70;;;21.30;83.40;;;;;;4899785;29;20549;-70
2023/09/03 07:12:04;;;;;;;2.60;2.00;;;21.30;83.80;;;;;;4899642;29;20470;-70
2023/09/03 07:14:32;;;;;;;2.37;1.70;;;21.30;83.80;;;;;;4899688;29;20461;-70
2023/09/03 07:17:00;;;;;;;2.40;1.73;;;21.40;83.90;;;;;;4899542;29;20564;-70
2023/09/03 07:19:27;;;;;;;2.10;1.57;;;21.40;83.80;;;;;;4899603;29;20446;-70
2023/09/03 07:21:54;;;;;;;3.27;2.40;;;21.40;84.20;;;;;;4898939;29;20472;-70
2023/09/03 07:24:21;;;;;;;2.50;1.70;;;21.40;83.90;;;;;;4899150;29;21029;-70
2023/09/03 07:26:48;;;;;;;2.20;1.67;;;21.40;84.50;;;;;;4899392;29;20501;-70
2023/09/03 07:29:16;;;;;;;2.47;1.57;;;21.30;84.80;;;;;;4899384;29;20446;-70
2023/09/03 07:31:43;;;;;;;3.20;2.20;;;21.20;85.20;;;;;;4899208;29;20478;-70
2023/09/03 07:34:10;;;;;;;4.00;2.10;;;21.40;84.80;;;;;;4899217;29;20576;-70
2023/09/03 07:36:37;;;;;;;3.00;1.90;;;21.30;84.90;;;;;;4899168;29;20493;-70
2023/09/03 07:39:05;;;;;;;3.03;2.17;;;21.30;84.90;;;;;;4899240;29;20453;-70
2023/09/03 07:41:31;;;;;;;2.70;1.93;;;21.30;85.20;;;;;;4898812;29;21006;-70
2023/09/03 07:43:58;;;;;;;2.30;1.77;;;21.40;84.80;;;;;;4899135;29;20446;-70
2023/09/03 07:46:26;;;;;;;2.20;1.80;;;21.50;84.70;;;;;;4898816;29;20943;-70
2023/09/03 07:48:53;;;;;;;2.60;1.93;;;21.80;84.60;;;;;;4899045;29;20453;-70
2023/09/03 07:51:21;;;;;;;2.40;1.80;;;22.00;83.50;;;;;;4898974;29;20525;-70
2023/09/03 07:53:48;;;;;;;2.93;1.83;;;22.00;83.00;;;;;;4899003;29;20903;-70
2023/09/03 07:56:14;;;;;;;4.23;1.80;;;22.10;83.60;;;;;;4898782;29;20968;-70
2023/09/03 07:58:42;;;;;;;2.70;1.70;;;22.20;83.10;;;;;;4898625;29;20509;-70
2023/09/03 08:01:10;;;;;;;3.27;2.20;;;22.40;83.60;;;;;;4898577;29;20521;-70
2023/09/03 08:03:40;;;;;;;2.43;2.17;;;22.80;82.20;;;;;;4898774;29;20507;-69
2023/09/03 08:06:07;;;;;;;3.23;2.37;;;23.00;80.70;;;;;;4898772;29;20502;-70
2023/09/03 08:08:34;;;;;;;2.50;1.90;;;23.00;80.00;;;;;;4898760;29;20869;-70
2023/09/03 08:11:02;;;;;;;2.57;2.20;;;23.40;79.50;;;;;;4898632;29;20579;-70
2023/09/03 08:13:29;;;;;;;2.60;1.80;;;23.60;78.90;;;;;;4898365;29;20445;-70
2023/09/03 08:15:56;;;;;;;2.40;1.80;;;23.60;79.00;;;;;;4898232;29;20911;-70
2023/09/03 08:18:23;;;;;;;2.80;1.93;;;23.70;79.40;;;;;;4898258;29;20875;-70
2023/09/03 08:20:51;;;;;;;2.10;1.63;;;23.70;78.60;;;;;;4898186;29;21047;-70
2023/09/03 08:23:19;;;;;;;2.70;2.37;;;23.70;79.30;;;;;;4898199;29;20955;-70
2023/09/03 08:25:46;;;;;;;2.40;2.17;;;23.90;78.60;;;;;;4898477;29;20441;-70
2023/09/03 08:28:13;;;;;;;2.97;2.10;;;24.30;77.70;;;;;;4898423;29;20603;-70
2023/09/03 08:30:40;;;;;;;2.77;2.20;;;24.50;76.80;;;;;;4898319;29;20445;-70
2023/09/03 08:33:07;;;;;;;2.20;1.63;;;24.80;75.90;;;;;;4897557;29;20884;-70
2023/09/03 08:35:35;;;;;;;3.20;1.80;;;25.00;75.40;;;;;;4898252;29;20482;-70
2023/09/03 08:38:04;;;;;;;2.93;1.60;;;25.30;74.40;;;;;;4898353;29;20450;-70
2023/09/03 08:40:32;;;;;;;2.30;1.33;;;25.50;74.40;;;;;;4898209;29;20903;-70
2023/09/03 08:43:00;;;;;;;2.67;1.43;;;25.50;72.60;;;;;;4898200;29;20465;-70
2023/09/03 08:45:28;;;;;;;2.73;1.40;;;25.10;73.90;;;;;;4898224;29;20453;-70
2023/09/03 08:47:55;;;;;;;2.10;1.53;;;24.70;74.20;;;;;;4898161;29;20476;-70
2023/09/03 08:50:24;;;;;;;2.17;1.37;;;24.80;74.50;;;;;;4897758;29;20458;-70
2023/09/03 08:52:53;;;;;;;2.00;1.43;;;25.20;74.40;;;;;;4898135;29;20453;-70
2023/09/03 08:55:22;;;;;;;1.93;1.60;;;25.30;73.30;;;;;;4898048;29;20485;-70
2023/09/03 08:57:54;;;;;;;1.97;1.33;;;25.50;73.50;;;;;;4898127;29;20497;-70
2023/09/03 09:00:20;;;;;;;4.53;1.80;;;25.80;72.10;;;;;;4898145;29;20532;-70
2023/09/03 09:02:49;;;;;;;2.20;1.30;;;25.80;71.20;;;;;;4897710;29;20461;-70
2023/09/03 09:05:16;;;;;;;3.57;1.30;;;25.90;70.60;;;;;;4898050;29;20457;-70
2023/09/03 09:07:42;;;;;;;1.93;1.20;;;26.20;69.80;;;;;;4898040;29;20449;-70
2023/09/03 09:10:10;;;;;;;2.83;1.40;;;26.00;71.10;;;;;;4898018;29;20456;-69
2023/09/03 09:12:45;;;;;;;1.90;1.40;;;26.20;68.80;;;;;;4897911;29;20560;-70
2023/09/03 09:15:12;;;;;;;2.13;1.27;;;26.30;69.00;;;;;;4897736;29;20480;-70
2023/09/03 09:17:38;;;;;;;2.10;1.33;;;26.20;69.90;;;;;;4897525;29;20982;-70
2023/09/03 09:20:06;;;;;;;1.90;1.40;;;25.90;71.20;;;;;;4897924;29;20449;-70
2023/09/03 09:22:40;;;;;;;2.00;1.47;;;25.70;71.60;;;;;;4897549;29;21054;-70
2023/09/03 09:25:09;;;;;;;2.37;1.47;;;26.00;69.90;;;;;;4897915;29;20437;-70
2023/09/03 09:27:37;;;;;;;1.80;1.20;;;26.10;70.90;;;;;;4897862;29;20450;-70
2023/09/03 09:30:13;;;;;;;2.43;1.40;;;26.30;70.00;;;;;;4897848;29;20442;-70
2023/09/03 09:32:41;;;;;;;2.00;1.07;;;26.40;68.90;;;;;;4897703;29;20484;-71
2023/09/03 09:35:08;;;;;;;1.87;1.40;;;26.50;68.80;;;;;;4897822;29;20453;-71
2023/09/03 09:37:39;;;;;;;2.33;1.57;;;26.50;69.00;;;;;;4897768;29;20489;-70
2023/09/03 09:40:07;;;;;;;1.93;1.30;;;26.30;68.40;;;;;;4897760;29;20525;-71
2023/09/03 09:42:35;;;;;;;2.03;1.17;;;26.10;69.00;;;;;;4897698;29;20478;-70
2023/09/03 09:45:02;;;;;;;2.00;1.10;;;26.30;67.80;;;;;;4899344;29;20454;-70
2023/09/03 09:47:30;;;;;;;3.17;1.40;;;26.20;69.50;;;;;;4901243;29;20525;-71
2023/09/03 09:49:57;;;;;;;1.90;1.20;;;26.00;69.40;;;;;;4901260;29;20450;-70
2023/09/03 09:52:35;;;;;;;1.70;1.10;;;26.00;69.30;;;;;;4901082;29;20480;-70
2023/09/03 09:55:01;;;;;;;2.50;1.40;;;26.20;68.30;;;;;;4901151;29;20465;-70
2023/09/03 09:57:28;;;;;;;1.73;1.07;;;26.30;67.80;;;;;;4900983;29;20489;-70
2023/09/03 09:59:59;;;;;;;1.73;1.13;;;26.40;67.20;;;;;;4901073;29;20560;-70
2023/09/03 10:02:25;;;;;;;1.70;1.00;;;26.40;68.30;;;;;;4900627;29;20488;-70
2023/09/03 10:04:54;;;;;;;1.70;1.00;;;26.30;68.30;;;;;;4900976;29;20446;-70
2023/09/03 10:07:22;;;;;;;1.50;0.73;;;26.30;67.80;;;;;;4900920;29;20453;-70
2023/09/03 10:09:49;;;;;;;1.70;1.07;;;26.40;67.00;;;;;;4900878;29;20454;-70
2023/09/03 10:12:15;;;;;;;2.07;1.20;;;26.30;67.20;;;;;;4900433;29;20979;-70
2023/09/03 10:14:42;;;;;;;1.60;0.93;;;26.30;67.60;;;;;;4901103;29;20947;-69
2023/09/03 10:17:10;;;;;;;2.03;1.27;;;26.60;67.70;;;;;;4900346;29;21054;-70
2023/09/03 10:19:43;;;;;;;1.60;0.80;;;26.50;66.50;;;;;;4900703;29;20454;-70
2023/09/03 10:22:18;;;;;;;1.93;1.10;;;26.20;67.30;;;;;;4900332;29;21047;-70
2023/09/03 10:24:47;;;;;;;1.87;1.00;;;26.20;67.90;;;;;;4900622;29;20477;-70
2023/09/03 10:27:19;;;;;;;1.60;0.90;;;26.50;66.80;;;;;;4900262;29;20947;-70
2023/09/03 10:29:48;;;;;;;2.30;1.17;;;26.60;65.70;;;;;;4900226;29;20787;-70
2023/09/03 10:32:16;;;;;;;2.07;1.20;;;26.20;66.80;;;;;;4900045;29;20552;-70
2023/09/03 10:34:43;;;;;;;1.93;1.17;;;26.30;65.30;;;;;;4900393;29;20449;-70
2023/09/03 10:37:12;;;;;;;1.60;0.80;;;26.60;64.60;;;;;;4900305;29;20484;-70
2023/09/03 10:39:42;;;;;;;1.40;0.73;;;26.80;64.00;;;;;;4900043;29;20449;-70
2023/09/03 10:42:31;;;;;;;1.50;0.70;;;27.10;61.80;;;;;;4900077;29;20863;-71
2023/09/03 10:44:59;;;;;;;1.83;1.10;;;27.20;62.70;;;;;;4900257;29;20434;-70
2023/09/03 10:47:26;;;;;;;1.60;0.93;;;27.00;64.30;;;;;;4899837;29;20873;-70
2023/09/03 10:49:54;;;;;;;1.67;0.93;;;27.10;64.20;;;;;;4899872;29;20959;-70
2023/09/03 10:52:40;;;;;;;1.77;1.00;;;26.60;64.20;;;;;;4900053;29;20474;-70
2023/09/03 10:55:17;;;;;;;1.53;0.73;;;26.90;65.10;;;;;;4899937;29;20971;-70
2023/09/03 10:57:45;;;;;;;1.50;0.70;;;26.60;63.80;;;;;;4899168;29;20474;-69
2023/09/03 11:00:17;;;;;;;1.70;0.90;;;26.60;62.90;;;;;;4899682;29;20450;-70
2023/09/03 11:02:44;;;;;;;1.50;0.83;;;26.60;64.10;;;;;;4899480;29;20863;-70
2023/09/03 11:05:13;;;;;;;1.70;0.90;;;26.90;64.10;;;;;;4899866;29;20450;-70
2023/09/03 11:07:41;;;;;;;1.63;0.80;;;27.10;62.20;;;;;;4899852;29;20449;-70
2023/09/03 11:10:39;;;;;;;3.30;0.80;;;27.20;62.10;;;;;;4899785;29;20536;-70
2023/09/03 11:13:12;;;;;;;1.60;0.90;;;27.40;61.40;;;;;;4899276;29;20877;-70
2023/09/03 11:15:51;;;;;;;1.80;0.90;;;27.60;60.60;;;;;;4899709;29;20430;-70
2023/09/03 11:18:20;;;;;;;1.50;0.70;;;27.50;61.50;;;;;;4899631;29;20478;-70
2023/09/03 11:20:47;;;;;;;1.57;0.90;;;27.60;61.30;;;;;;4899492;29;20549;-71
2023/09/03 11:23:15;;;;;;;1.50;0.77;;;27.70;60.80;;;;;;4899554;29;20906;-71
2023/09/03 11:25:42;;;;;;;1.40;0.80;;;27.80;60.00;;;;;;4899505;29;20509;-70
2023/09/03 11:28:12;;;;;;;1.50;0.80;;;28.00;59.90;;;;;;4899460;29;20493;-70
2023/09/03 11:30:39;;;;;;;1.63;0.90;;;28.30;60.00;;;;;;4899360;29;20450;-71
2023/09/03 11:33:08;;;;;;;1.60;0.77;;;28.40;60.50;;;;;;4899355;29;20505;-70
2023/09/03 11:35:46;;;;;;;1.60;0.80;;;28.50;58.90;;;;;;4899019;29;20453;-70
2023/09/03 11:38:14;;;;;;;1.50;0.80;;;28.60;59.30;;;;;;4899289;29;20469;-71
2023/09/03 11:40:41;;;;;;;1.60;0.80;;;28.60;58.90;;;;;;4899195;29;20517;-71
2023/09/03 11:43:11;;;;;;;1.80;0.80;;;28.40;59.20;;;;;;4899147;29;20533;-71
2023/09/03 11:45:38;;;;;;;1.60;0.80;;;28.50;58.00;;;;;;4899065;29;20540;-70
2023/09/03 11:48:07;;;;;;;1.80;0.90;;;28.50;59.00;;;;;;4898748;29;20955;-70
2023/09/03 11:50:34;;;;;;;1.60;0.80;;;28.70;59.20;;;;;;4898958;29;20531;-70
2023/09/03 11:53:04;;;;;;;1.77;0.87;;;28.20;58.30;;;;;;4899259;29;20533;-71
2023/09/03 11:55:35;;;;;;;1.50;0.80;;;28.10;60.80;;;;;;4898943;29;20453;-70
2023/09/03 11:58:03;;;;;;;1.50;0.80;;;27.70;60.70;;;;;;4898888;29;20478;-70
2023/09/03 12:00:31;;;;;;;1.87;0.90;;;27.90;60.80;;;;;;4898662;29;20450;-70
2023/09/03 12:02:59;;;;;;;2.20;0.83;;;27.70;59.40;;;;;;4898700;29;20456;-70
2023/09/03 12:05:27;;;;;;;1.70;0.90;;;27.30;61.40;;;;;;4899523;29;20872;-70
2023/09/03 12:07:54;;;;;;;1.70;0.90;;;27.50;62.20;;;;;;4898586;29;20536;-70
2023/09/03 12:10:21;;;;;;;1.50;0.80;;;27.80;62.20;;;;;;4898732;29;20509;-70
2023/09/03 12:12:48;;;;;;;2.40;0.93;;;28.00;61.90;;;;;;4899430;29;20453;-70
2023/09/03 12:15:19;;;;;;;1.70;0.90;;;27.90;60.90;;;;;;4898636;29;20843;-70
2023/09/03 12:17:46;;;;;;;2.30;1.10;;;27.50;62.00;;;;;;4898153;29;20945;-70
2023/09/03 12:20:32;;;;;;;1.60;0.83;;;27.70;61.80;;;;;;4898547;29;20482;-70
2023/09/03 12:23:07;;;;;;;1.60;0.87;;;28.00;61.50;;;;;;4898491;29;20874;-70
2023/09/03 12:25:34;;;;;;;1.60;0.80;;;28.10;61.20;;;;;;4898230;29;20968;-70
2023/09/03 12:28:04;;;;;;;2.17;0.80;;;28.20;61.20;;;;;;4898417;29;20453;-71
2023/09/03 12:30:56;;;;;;;1.50;0.90;;;28.40;61.10;;;;;;4898353;29;20453;-70
2023/09/03 12:33:23;;;;;;;1.67;0.70;;;28.50;61.00;;;;;;4898054;29;21035;-70
2023/09/03 12:36:09;;;;;;;1.50;0.70;;;28.40;60.30;;;;;;4899039;29;20532;-70
2023/09/03 12:38:56;;;;;;;1.70;1.00;;;28.40;60.20;;;;;;4898223;29;20493;-70
2023/09/03 12:41:25;;;;;;;1.50;0.77;;;28.60;60.70;;;;;;4898226;29;21046;-70
2023/09/03 12:43:53;;;;;;;1.77;0.87;;;28.90;60.60;;;;;;4897934;29;20958;-71
2023/09/03 12:46:20;;;;;;;1.80;0.83;;;29.20;60.90;;;;;;4898201;29;20501;-70
2023/09/03 12:48:47;;;;;;;1.53;0.80;;;29.20;58.40;;;;;;4897794;29;20917;-71
2023/09/03 12:51:16;;;;;;;1.60;0.90;;;29.30;59.50;;;;;;4898029;29;20472;-71
2023/09/03 12:53:45;;;;;;;1.67;0.70;;;29.60;58.70;;;;;;4898148;29;20544;-71
2023/09/03 12:56:12;;;;;;;1.60;0.90;;;29.70;58.10;;;;;;4898117;29;20505;-71
2023/09/03 12:58:39;;;;;;;1.60;0.90;;;29.30;57.90;;;;;;4898068;29;20481;-70
2023/09/03 13:01:08;;;;;;;1.60;0.83;;;28.90;59.70;;;;;;4897835;29;20493;-70
2023/09/03 13:03:35;;;;;;;1.70;1.00;;;28.40;58.30;;;;;;4897757;29;20954;-70
2023/09/03 13:06:01;;;;;;;1.40;0.70;;;28.40;60.20;;;;;;4897783;29;20955;-70
2023/09/03 13:08:29;;;;;;;2.50;1.20;;;28.50;59.20;;;;;;4898032;29;20438;-71
2023/09/03 13:10:55;;;;;;;1.53;0.87;;;28.40;59.90;;;;;;4897914;29;20485;-71
2023/09/03 13:13:22;;;;;;;1.90;1.00;;;28.20;59.50;;;;;;4898005;29;20505;-70
2023/09/03 13:15:49;;;;;;;1.80;1.00;;;28.40;60.20;;;;;;4897986;29;20473;-70
2023/09/03 13:18:17;;;;;;;1.67;0.90;;;28.50;58.60;;;;;;4897865;29;20512;-70
2023/09/03 13:20:44;;;;;;;1.70;1.00;;;28.80;58.90;;;;;;4900673;29;20481;-70
2023/09/03 13:23:11;;;;;;;1.60;0.90;;;28.60;58.80;;;;;;4901749;29;20457;-70
2023/09/03 13:25:39;;;;;;;1.93;0.90;;;28.50;59.90;;;;;;4902766;29;20457;-71
2023/09/03 13:28:08;;;;;;;1.90;0.90;;;28.60;59.30;;;;;;4901604;29;20442;-71
2023/09/03 13:30:35;;;;;;;1.70;1.00;;;28.60;60.10;;;;;;4901206;29;20536;-70
2023/09/03 13:33:03;;;;;;;1.93;1.37;;;28.60;60.30;;;;;;4901538;29;20484;-71
2023/09/03 13:35:31;;;;;;;2.73;1.20;;;28.80;60.00;;;;;;4901501;29;20454;-70
2023/09/03 13:37:58;;;;;;;1.60;1.00;;;28.90;59.80;;;;;;4901352;29;20528;-70
2023/09/03 13:40:25;;;;;;;1.70;1.00;;;28.80;60.30;;;;;;4901328;29;20521;-70
2023/09/03 13:42:52;;;;;;;1.60;0.93;;;29.00;59.70;;;;;;4901389;29;20508;-70
2023/09/03 13:45:18;;;;;;;1.90;1.20;;;29.00;59.60;;;;;;4901312;29;20457;-70
2023/09/03 13:47:45;;;;;;;1.83;0.93;;;29.30;59.40;;;;;;4901254;29;20505;-70
2023/09/03 13:50:12;;;;;;;1.80;0.93;;;29.00;58.60;;;;;;4901242;29;20445;-70
2023/09/03 13:52:40;;;;;;;1.50;0.80;;;28.60;58.60;;;;;;4901141;29;20477;-70
2023/09/03 13:55:07;;;;;;;2.03;1.20;;;28.80;59.70;;;;;;4901506;29;20500;-70
2023/09/03 13:57:34;;;;;;;1.80;1.07;;;29.00;59.50;;;;;;4901014;29;20485;-70
2023/09/03 14:00:01;;;;;;;1.77;1.00;;;29.20;57.50;;;;;;4901108;29;20453;-71
2023/09/03 14:02:29;;;;;;;1.60;0.80;;;29.10;58.30;;;;;;4900964;29;20517;-70
2023/09/03 14:04:57;;;;;;;1.73;1.10;;;29.20;58.90;;;;;;4900936;29;20536;-70
2023/09/03 14:07:24;;;;;;;1.80;0.90;;;29.40;58.40;;;;;;4900925;29;20484;-70
2023/09/03 14:09:54;;;;;;;2.03;0.90;;;29.50;58.40;;;;;;4900580;29;20452;-71
2023/09/03 14:12:21;;;;;;;1.70;1.00;;;29.30;59.00;;;;;;4901024;29;20470;-71
2023/09/03 14:14:48;;;;;;;1.77;1.10;;;29.20;59.80;;;;;;4900782;29;20890;-71
2023/09/03 14:17:14;;;;;;;1.70;0.90;;;29.10;58.70;;;;;;4901108;29;20489;-71
2023/09/03 14:19:41;;;;;;;1.83;0.90;;;29.30;58.90;;;;;;4900721;29;20449;-70
2023/09/03 14:22:08;;;;;;;1.60;0.83;;;29.40;57.70;;;;;;4900613;29;20477;-70
2023/09/03 14:24:35;;;;;;;1.73;1.00;;;29.70;57.90;;;;;;4901326;29;20461;-70
2023/09/03 14:27:04;;;;;;;2.23;1.00;;;29.90;57.70;;;;;;4900554;29;20540;-70
2023/09/03 14:29:31;;;;;;;1.50;0.80;;;30.10;55.80;;;;;;4900533;29;20457;-70
2023/09/03 14:31:58;;;;;;;1.70;0.87;;;30.20;56.00;;;;;;4898811;29;20993;-70
2023/09/03 14:34:24;;;;;;;1.63;1.00;;;30.30;55.90;;;;;;4900434;29;20453;-70
2023/09/03 14:36:51;;;;;;;2.10;1.00;;;30.60;55.30;;;;;;4900380;29;20456;-70
2023/09/03 14:39:18;;;;;;;1.80;0.90;;;31.00;54.20;;;;;;4901056;29;20485;-70
2023/09/03 14:41:45;;;;;;;1.50;0.90;;;31.30;52.30;;;;;;4900251;29;20891;-70
2023/09/03 14:44:14;;;;;;;1.40;0.80;;;31.70;53.50;;;;;;4900263;29;20461;-71
2023/09/03 14:46:41;;;;;;;1.50;0.80;;;32.20;52.50;;;;;;4900169;29;20453;-70
2023/09/03 14:49:10;;;;;;;2.27;0.90;;;32.50;51.60;;;;;;4900190;29;20497;-70
2023/09/03 14:51:36;;;;;;;2.10;0.73;;;32.70;52.40;;;;;;4900076;29;20473;-71
2023/09/03 14:54:03;;;;;;;1.67;0.97;;;32.70;52.10;;;;;;4900095;29;20509;-71
2023/09/03 14:56:30;;;;;;;1.60;1.00;;;32.50;52.00;;;;;;4900013;29;20501;-70
2023/09/03 14:58:59;;;;;;;2.00;1.30;;;32.30;51.90;;;;;;4899939;29;20493;-71
2023/09/03 15:01:27;;;;;;;2.03;1.00;;;31.70;52.50;;;;;;4899635;29;20485;-70
2023/09/03 15:03:54;;;;;;;1.70;1.00;;;31.50;52.80;;;;;;4899899;29;20510;-70
2023/09/03 15:06:21;;;;;;;1.70;1.23;;;31.70;53.70;;;;;;4899549;29;20449;-70
2023/09/03 15:08:49;;;;;;;1.47;0.90;;;31.90;53.00;;;;;;4899830;29;20469;-70
2023/09/03 15:11:16;;;;;;;1.60;0.80;;;32.20;52.50;;;;;;4899604;29;20474;-71
2023/09/03 15:13:44;;;;;;;1.50;0.80;;;32.20;51.80;;;;;;4899736;29;20476;-70
2023/09/03 15:16:11;;;;;;;1.43;0.83;;;31.80;52.60;;;;;;4899677;29;20502;-70
2023/09/03 15:18:39;;;;;;;1.50;0.90;;;31.60;53.40;;;;;;4899697;29;20608;-70
2023/09/03 15:21:07;;;;;;;1.50;0.80;;;31.50;52.90;;;;;;4899558;29;20902;-70
2023/09/03 15:23:34;;;;;;;1.70;1.00;;;31.10;54.00;;;;;;4899256;29;20947;-71
2023/09/03 15:26:03;;;;;;;2.17;0.90;;;30.90;53.70;;;;;;4899490;29;20450;-70
2023/09/03 15:28:30;;;;;;;1.80;1.00;;;30.50;54.60;;;;;;4899456;29;20532;-70
2023/09/03 15:30:56;;;;;;;1.57;0.90;;;30.20;55.70;;;;;;4899355;29;20474;-70
2023/09/03 15:33:23;;;;;;;2.47;1.10;;;30.00;56.00;;;;;;4899370;29;20450;-71
2023/09/03 15:35:51;;;;;;;1.70;0.87;;;29.80;56.10;;;;;;4899374;29;20471;-71
2023/09/03 15:38:17;;;;;;;1.60;0.80;;;29.60;56.30;;;;;;4899260;29;20537;-70
2023/09/03 15:40:44;;;;;;;1.70;0.90;;;29.30;56.70;;;;;;4899225;29;20469;-71
2023/09/03 15:43:11;;;;;;;1.50;0.80;;;29.10;56.80;;;;;;4898789;29;20871;-70
2023/09/03 15:45:40;;;;;;;1.63;0.80;;;28.90;57.30;;;;;;4899137;29;20550;-70
2023/09/03 15:48:08;;;;;;;2.13;0.93;;;28.70;58.10;;;;;;4899069;29;20517;-70
2023/09/03 15:50:40;;;;;;;1.80;0.90;;;28.60;59.20;;;;;;4898994;29;20533;-70
2023/09/03 15:53:08;;;;;;;1.50;0.80;;;28.40;57.90;;;;;;4899100;29;20433;-70
2023/09/03 15:55:35;;;;;;;1.67;1.00;;;28.30;58.00;;;;;;4898685;29;20974;-70
2023/09/03 15:58:02;;;;;;;1.60;0.80;;;28.30;57.50;;;;;;4898900;29;20485;-70
2023/09/03 16:00:30;;;;;;;1.80;0.80;;;28.30;58.40;;;;;;4898750;29;20528;-70
2023/09/03 16:02:56;;;;;;;1.50;0.80;;;28.30;58.00;;;;;;4898809;29;20454;-71
2023/09/03 16:05:24;;;;;;;1.83;0.90;;;28.30;57.10;;;;;;4898535;29;20859;-70
2023/09/03 16:07:51;;;;;;;1.60;0.93;;;28.20;58.40;;;;;;4898748;29;20454;-70
2023/09/03 16:10:19;;;;;;;1.77;1.13;;;28.10;58.10;;;;;;4899222;29;20450;-70
2023/09/03 16:12:45;;;;;;;1.60;0.90;;;28.10;58.60;;;;;;4898625;29;20466;-70
2023/09/03 16:15:12;;;;;;;1.60;0.90;;;28.00;57.10;;;;;;4899305;29;20456;-70
2023/09/03 16:17:39;;;;;;;1.70;0.90;;;27.80;58.80;;;;;;4898517;29;20456;-70
2023/09/03 16:20:07;;;;;;;1.70;0.90;;;27.70;58.90;;;;;;4898588;29;20461;-70
2023/09/03 16:22:34;;;;;;;1.50;0.90;;;27.50;58.80;;;;;;4898485;29;20525;-70
2023/09/03 16:25:00;;;;;;;1.83;1.10;;;27.50;59.60;;;;;;4898223;29;21003;-70
2023/09/03 16:27:28;;;;;;;1.90;1.00;;;27.50;58.40;;;;;;4898151;29;20944;-70
2023/09/03 16:29:55;;;;;;;1.50;0.80;;;27.50;57.80;;;;;;4898174;29;20963;-70
2023/09/03 16:32:22;;;;;;;2.57;1.13;;;27.40;58.30;;;;;;4898013;29;21003;-70
2023/09/03 16:34:49;;;;;;;1.50;0.80;;;27.40;57.70;;;;;;4898379;29;20824;-70
2023/09/03 16:37:16;;;;;;;1.53;0.77;;;27.40;58.10;;;;;;4898367;29;20533;-70
2023/09/03 16:39:43;;;;;;;2.67;0.93;;;27.20;57.40;;;;;;4898237;29;20496;-70
2023/09/03 16:42:10;;;;;;;2.07;1.00;;;27.10;58.40;;;;;;4898219;29;20474;-70
2023/09/03 16:44:38;;;;;;;1.57;0.87;;;27.10;59.80;;;;;;4898282;29;20453;-70
2023/09/03 16:47:04;;;;;;;2.03;1.00;;;27.00;58.20;;;;;;4897935;29;20460;-70
2023/09/03 16:49:31;;;;;;;2.43;0.90;;;27.00;58.90;;;;;;4898217;29;20441;-70
2023/09/03 16:51:59;;;;;;;1.50;0.90;;;26.90;59.20;;;;;;4898149;29;20473;-70
2023/09/03 16:54:25;;;;;;;1.60;1.00;;;26.90;59.50;;;;;;4897413;29;20541;-71